sim
Sign-in with your pilot id or email,
or register
Callsign
Passwort

Schedule Details

Flight Number: DLH2169
Departure: Leipzig Halle Airport (EDDP) at 14:50
Arrival: Munich Airport (EDDM) at 15:50
Route: Lufthansa Passenger Schedule. Enter filed route here before submitting Pirep.

Weather Information
Getting current METAR information for EDDP 221950Z 16004KT 130V190 CAVOK 20/13 Q1008 NOSIG
Getting current METAR information for EDDM 221950Z VRB01KT CAVOK 17/15 Q1010 NOSIG

Schedule Frequency

Route Map